Terminal Aerodrome Forecast
Issued by NWS Charleston, WV

Current Version | Previous Version | Graphics & Text | Print | Product List | Glossary On
Versions: 1 2 3 4 5 6 7 8 9 10 11 12 13 14 15 16 17 18 19 20 21 22 23 24 25 26
681
FTUS41 KRLX 052137 AAA
TAFBKW
TAF AMD
KBKW 052137Z 0522/0618 31007KT 4SM -SHRA BR BKN009 OVC015
     FM060200 32007KT 2SM -SHRA BR OVC007
     FM060400 34007KT 1SM -SHRA BR OVC003
     FM061300 33008KT 3SM -SHRA BR OVC008=

USA.gov is the U.S. government's official web portal to all federal, state and local government web resources and services.